createdAt,value
2018-05-19T00:00:26.334Z,23.03
2018-05-19T00:02:53.999Z,21.92
2018-05-19T00:05:21.360Z,24.55
2018-05-19T00:07:48.666Z,32.58
2018-05-19T00:10:16.031Z,26.73
2018-05-19T00:12:43.626Z,34.90
2018-05-19T00:15:11.287Z,29.30
2018-05-19T00:17:38.841Z,29.05
2018-05-19T00:20:06.518Z,25.50
2018-05-19T00:22:39.622Z,25.10
2018-05-19T00:25:07.263Z,28.62
2018-05-19T00:27:34.598Z,29.67
2018-05-19T00:30:01.936Z,30.02
2018-05-19T00:32:29.299Z,27.70
2018-05-19T00:34:56.612Z,23.87
2018-05-19T00:37:24.248Z,22.27
2018-05-19T00:39:51.799Z,27.62
2018-05-19T00:42:19.155Z,30.50
2018-05-19T00:44:46.504Z,29.73
2018-05-19T00:47:13.860Z,29.70
2018-05-19T00:49:41.206Z,34.20
2018-05-19T00:52:08.571Z,30.55
2018-05-19T00:54:41.642Z,28.62
2018-05-19T00:57:09.335Z,35.30
2018-05-19T00:59:36.680Z,27.17
2018-05-19T01:02:04.046Z,29.10
2018-05-19T01:04:31.703Z,30.00
2018-05-19T01:06:59.371Z,30.20
2018-05-19T01:09:26.745Z,34.85
2018-05-19T01:11:54.386Z,28.73
2018-05-19T01:14:21.942Z,26.10
2018-05-19T01:16:49.304Z,29.48
2018-05-19T01:19:16.626Z,28.40
2018-05-19T01:21:43.984Z,24.00
2018-05-19T01:24:11.294Z,29.98
2018-05-19T01:26:38.927Z,32.20
2018-05-19T01:29:06.281Z,35.35
2018-05-19T01:31:33.944Z,31.50
2018-05-19T01:34:01.292Z,40.75
2018-05-19T01:36:28.651Z,27.83
2018-05-19T01:38:56.317Z,27.73
2018-05-19T01:41:23.674Z,36.17
2018-05-19T01:43:51.329Z,28.17
2018-05-19T01:46:18.995Z,28.70
2018-05-19T01:48:46.553Z,29.60
2018-05-19T01:51:13.906Z,32.10
2018-05-19T01:53:41.252Z,31.53
2018-05-19T01:56:08.629Z,34.15
2018-05-19T01:58:35.989Z,34.78
2018-05-19T02:01:03.341Z,34.45
2018-05-19T02:03:30.993Z,35.03
2018-05-19T02:05:58.314Z,29.95
2018-05-19T02:08:25.646Z,33.63
2018-05-19T02:10:53.268Z,38.28
2018-05-19T02:13:20.926Z,36.85
2018-05-19T02:15:48.268Z,39.22
2018-05-19T02:18:15.594Z,33.72
2018-05-19T02:20:43.027Z,40.20
2018-05-19T02:23:10.661Z,42.30
2018-05-19T02:25:38.025Z,32.60
2018-05-19T02:28:05.378Z,35.65
2018-05-19T02:30:33.027Z,35.80
2018-05-19T02:33:00.704Z,40.25
2018-05-19T02:35:28.350Z,33.80
2018-05-19T02:37:55.729Z,38.15
2018-05-19T02:40:23.084Z,36.03
2018-05-19T02:42:50.727Z,38.53
2018-05-19T02:45:18.389Z,38.05
2018-05-19T02:47:45.718Z,38.75
2018-05-19T02:50:13.410Z,41.92
2018-05-19T02:52:41.071Z,31.00
2018-05-19T02:55:08.384Z,36.53
2018-05-19T02:57:35.738Z,40.50
2018-05-19T03:00:03.067Z,38.30
2018-05-19T03:02:30.444Z,31.67
2018-05-19T03:04:57.796Z,36.00
2018-05-19T03:07:25.134Z,34.90
2018-05-19T03:09:52.525Z,37.65
2018-05-19T03:12:20.114Z,33.72
2018-05-19T03:14:47.426Z,28.17
2018-05-19T03:17:14.803Z,37.08
2018-05-19T03:19:42.103Z,36.50
2018-05-19T03:22:09.743Z,33.60
2018-05-19T03:24:37.062Z,35.00
2018-05-19T03:27:04.409Z,27.70
2018-05-19T03:29:31.718Z,37.17
2018-05-19T03:31:59.060Z,34.63
2018-05-19T03:34:26.375Z,33.50
2018-05-19T03:36:53.973Z,35.45
2018-05-19T03:39:21.315Z,36.20
2018-05-19T03:41:48.649Z,29.93
2018-05-19T03:44:16.248Z,41.47
2018-05-19T03:46:43.806Z,33.83
2018-05-19T03:49:11.126Z,39.35
2018-05-19T03:51:38.467Z,26.62
2018-05-19T03:54:06.075Z,31.15
2018-05-19T03:56:33.746Z,32.70
2018-05-19T03:59:06.937Z,29.50
2018-05-19T04:01:40.332Z,30.73
2018-05-19T04:04:07.658Z,25.27
2018-05-19T04:06:35.237Z,36.92
2018-05-19T04:09:02.618Z,28.33
2018-05-19T04:11:29.974Z,31.95
2018-05-19T04:13:57.356Z,40.37
2018-05-19T04:16:24.669Z,36.33
2018-05-19T04:18:52.262Z,30.17
2018-05-19T04:21:19.615Z,42.25
2018-05-19T04:23:46.970Z,40.70
2018-05-19T04:26:14.600Z,37.55
2018-05-19T04:28:41.984Z,40.28
2018-05-19T04:31:09.293Z,31.58
2018-05-19T04:33:36.671Z,32.70
2018-05-19T04:36:04.330Z,33.13
2018-05-19T04:38:31.991Z,34.20
2018-05-19T04:40:59.652Z,39.20
2018-05-19T04:43:27.347Z,32.50
2018-05-19T04:45:54.679Z,30.25
2018-05-19T04:48:22.038Z,36.90
2018-05-19T04:50:49.403Z,30.23
2018-05-19T04:53:16.758Z,33.42
2018-05-19T04:55:44.398Z,30.73
2018-05-19T04:58:11.754Z,33.35
2018-05-19T05:00:39.071Z,32.38
2018-05-19T05:03:06.779Z,32.08
2018-05-19T05:05:34.097Z,37.65
2018-05-19T05:08:01.786Z,35.53
2018-05-19T05:10:29.110Z,34.42
2018-05-19T05:12:56.702Z,32.80
2018-05-19T05:15:24.022Z,41.42
2018-05-19T05:17:51.391Z,33.80
2018-05-19T05:20:18.725Z,28.20
2018-05-19T05:22:46.074Z,30.05
2018-05-19T05:25:13.432Z,32.75
2018-05-19T05:27:40.786Z,31.43
2018-05-19T05:30:08.141Z,34.28
2018-05-19T05:32:35.495Z,29.63
2018-05-19T05:35:02.863Z,26.23
2018-05-19T05:37:30.205Z,34.28
2018-05-19T05:39:57.783Z,32.33
2018-05-19T05:42:25.142Z,25.62
2018-05-19T05:44:52.511Z,37.97
2018-05-19T05:47:19.847Z,26.77
2018-05-19T05:49:47.170Z,31.27
2018-05-19T05:52:14.477Z,28.27
2018-05-19T05:54:41.806Z,24.35
2018-05-19T05:57:09.191Z,32.38
2018-05-19T05:59:36.614Z,26.00
2018-05-19T06:02:03.879Z,28.20
2018-05-19T06:04:31.425Z,33.03
2018-05-19T06:06:58.741Z,26.50
2018-05-19T06:09:26.065Z,31.30
2018-05-19T06:11:53.408Z,31.35
2018-05-19T06:14:20.771Z,35.25
2018-05-19T06:16:48.119Z,30.80
2018-05-19T06:19:15.807Z,19.25
2018-05-19T06:21:43.470Z,30.23
2018-05-19T06:24:10.798Z,30.75
2018-05-19T06:26:38.148Z,24.98
2018-05-19T06:29:05.524Z,28.05
2018-05-19T06:31:32.826Z,26.00
2018-05-19T06:34:00.189Z,28.58
2018-05-19T06:36:27.528Z,30.52
2018-05-19T06:38:54.886Z,28.02
2018-05-19T06:41:22.186Z,32.83
2018-05-19T06:43:49.871Z,32.70
2018-05-19T06:46:17.529Z,26.58
2018-05-19T06:48:44.876Z,29.17
2018-05-19T06:51:12.259Z,32.53
2018-05-19T06:53:39.610Z,23.35
2018-05-19T06:56:06.963Z,26.77
2018-05-19T06:58:34.311Z,15.98
2018-05-19T07:01:01.980Z,26.25
2018-05-19T07:03:29.294Z,16.25
2018-05-19T07:05:56.655Z,17.33
2018-05-19T07:08:23.974Z,16.17
2018-05-19T07:10:51.328Z,18.20
2018-05-19T07:13:18.949Z,18.93
2018-05-19T07:15:46.307Z,16.60
2018-05-19T07:18:13.976Z,16.90
2018-05-19T07:20:41.630Z,15.02
2018-05-19T07:23:09.186Z,16.95
2018-05-19T07:25:37.341Z,19.60
2018-05-19T07:28:04.683Z,14.23
2018-05-19T07:30:32.057Z,13.10
2018-05-19T07:32:59.419Z,11.55
2018-05-19T07:35:26.777Z,12.70
2018-05-19T07:37:54.347Z,13.48
2018-05-19T07:40:21.719Z,11.38
2018-05-19T07:42:49.982Z,15.32
2018-05-19T07:45:17.297Z,10.88
2018-05-19T07:47:44.608Z,12.93
2018-05-19T07:50:11.964Z,7.87
2018-05-19T07:52:39.262Z,14.10
2018-05-19T07:55:06.623Z,10.07
2018-05-19T07:57:33.959Z,11.70
2018-05-19T08:00:01.295Z,10.93
2018-05-19T08:02:28.668Z,10.97
2018-05-19T08:04:55.983Z,9.07
2018-05-19T08:07:23.322Z,7.25
2018-05-19T08:09:50.985Z,9.23
2018-05-19T08:12:18.736Z,9.80
2018-05-19T08:14:46.037Z,10.88
2018-05-19T08:17:13.370Z,8.98
2018-05-19T08:19:40.712Z,7.20
2018-05-19T08:22:08.294Z,7.20
2018-05-19T08:24:35.634Z,12.45
2018-05-19T08:27:03.179Z,8.30
2018-05-19T08:29:30.521Z,8.23
2018-05-19T08:31:57.945Z,8.02
2018-05-19T08:34:25.282Z,8.10
2018-05-19T08:36:52.860Z,4.75
2018-05-19T08:39:20.206Z,5.05
2018-05-19T08:41:47.518Z,7.55
2018-05-19T08:44:14.866Z,5.60
2018-05-19T08:46:42.215Z,6.78
2018-05-19T08:49:09.521Z,8.35
2018-05-19T08:51:36.862Z,8.10
2018-05-19T08:54:04.204Z,10.10
2018-05-19T08:56:31.582Z,7.60
2018-05-19T08:58:59.442Z,5.05
2018-05-19T09:01:26.897Z,9.65
2018-05-19T09:03:54.323Z,6.35
2018-05-19T09:06:22.058Z,8.63
2018-05-19T09:08:49.757Z,5.57
2018-05-19T09:11:17.491Z,6.20
2018-05-19T09:13:45.235Z,5.75
2018-05-19T09:16:25.056Z,5.90
2018-05-19T09:18:52.713Z,6.05
2018-05-19T09:21:20.426Z,6.70
2018-05-19T09:23:47.717Z,7.05
2018-05-19T09:26:15.287Z,5.40
2018-05-19T09:28:42.586Z,7.93
2018-05-19T09:34:00.989Z,6.30
2018-05-19T09:36:28.548Z,4.75
2018-05-19T09:41:47.331Z,4.40
2018-05-19T09:44:14.634Z,4.43
2018-05-19T09:46:41.916Z,5.55
2018-05-19T09:49:09.219Z,3.45
2018-05-19T09:51:36.529Z,14.55
2018-05-19T09:54:04.102Z,3.90
2018-05-19T09:56:31.397Z,6.33
2018-05-19T09:58:58.709Z,5.83
2018-05-19T10:01:26.032Z,3.92
2018-05-19T10:03:53.311Z,3.87
2018-05-19T10:06:20.619Z,3.55
2018-05-19T10:08:47.942Z,4.43
2018-05-19T10:11:15.261Z,3.85
2018-05-19T10:13:42.840Z,7.15
2018-05-19T10:16:10.162Z,10.30
2018-05-19T10:18:37.752Z,8.97
2018-05-19T10:21:05.149Z,10.73
2018-05-19T10:23:32.777Z,5.85
2018-05-19T10:26:00.065Z,6.63
2018-05-19T10:28:27.351Z,3.80
2018-05-19T10:30:54.866Z,6.70
2018-05-19T10:33:22.167Z,5.28
2018-05-19T10:35:49.441Z,3.87
2018-05-19T10:38:16.721Z,3.83
2018-05-19T10:40:44.012Z,6.50
2018-05-19T10:43:12.081Z,4.65
2018-05-19T10:45:39.593Z,3.65
2018-05-19T10:48:06.870Z,5.22
2018-05-19T10:50:34.502Z,3.90
2018-05-19T10:53:01.822Z,5.57
2018-05-19T10:55:29.101Z,4.00
2018-05-19T10:57:56.675Z,3.90
2018-05-19T11:00:24.228Z,4.40
2018-05-19T11:02:51.566Z,2.90
2018-05-19T11:05:18.863Z,3.60
2018-05-19T11:07:46.171Z,4.70
2018-05-19T11:10:13.471Z,6.82
2018-05-19T11:12:40.782Z,5.50
2018-05-19T11:15:08.090Z,3.87
2018-05-19T11:17:35.720Z,2.83
2018-05-19T11:20:03.278Z,3.97
2018-05-19T11:22:30.613Z,5.25
2018-05-19T11:24:57.876Z,3.42
2018-05-19T11:27:25.450Z,6.20
2018-05-19T11:29:52.753Z,4.13
2018-05-19T11:32:20.032Z,7.27
2018-05-19T11:34:47.610Z,5.93
2018-05-19T11:37:14.892Z,7.47
2018-05-19T11:39:42.164Z,3.10
2018-05-19T11:42:09.781Z,3.05
2018-05-19T11:44:37.322Z,2.12
2018-05-19T11:47:04.633Z,5.00
2018-05-19T11:49:32.153Z,4.90
2018-05-19T11:51:59.716Z,4.75
2018-05-19T11:54:26.984Z,4.75
2018-05-19T11:56:54.363Z,4.50
2018-05-19T11:59:21.880Z,3.70
2018-05-19T12:01:49.168Z,2.55
2018-05-19T12:04:16.695Z,3.85
2018-05-19T12:06:44.018Z,3.30
2018-05-19T12:09:11.293Z,2.80
2018-05-19T12:11:38.576Z,2.00
2018-05-19T12:14:05.870Z,6.73
2018-05-19T12:16:33.178Z,2.50
2018-05-19T12:19:00.728Z,4.15
2018-05-19T12:21:28.027Z,3.80
2018-05-19T12:23:55.321Z,4.30
2018-05-19T12:26:22.625Z,2.92
2018-05-19T12:28:50.161Z,4.12
2018-05-19T12:31:17.458Z,6.87
2018-05-19T12:33:44.737Z,3.97
2018-05-19T12:36:12.232Z,3.17
2018-05-19T12:38:39.512Z,3.87
2018-05-19T12:41:06.813Z,2.73
2018-05-19T12:43:34.097Z,2.80
2018-05-19T12:46:01.380Z,4.90
2018-05-19T12:48:28.685Z,2.53
2018-05-19T12:50:55.990Z,2.90
2018-05-19T12:53:23.310Z,3.20
2018-05-19T12:55:50.607Z,2.40
2018-05-19T12:58:17.913Z,3.00
2018-05-19T13:00:45.438Z,2.23
2018-05-19T13:03:12.728Z,7.40
2018-05-19T13:05:40.009Z,3.90
2018-05-19T13:08:07.301Z,5.20
2018-05-19T13:10:34.625Z,1.98
2018-05-19T13:13:01.941Z,6.35
2018-05-19T13:15:29.428Z,8.50
2018-05-19T13:17:57.041Z,1.95
2018-05-19T13:20:24.348Z,2.45
2018-05-19T13:22:51.628Z,2.42
2018-05-19T13:25:18.936Z,4.60
2018-05-19T13:27:46.574Z,3.60
2018-05-19T13:30:14.125Z,3.27
2018-05-19T13:32:41.450Z,3.65
2018-05-19T13:35:08.956Z,2.67
2018-05-19T13:37:36.298Z,1.87
2018-05-19T13:40:04.663Z,3.55
2018-05-19T13:42:32.017Z,1.90
2018-05-19T13:44:59.371Z,3.33
2018-05-19T13:47:27.260Z,7.90
2018-05-19T13:49:55.230Z,3.53
2018-05-19T13:52:22.539Z,4.43
2018-05-19T13:54:50.554Z,2.33
2018-05-19T13:57:18.620Z,5.80
2018-05-19T13:59:45.936Z,4.28
2018-05-19T14:02:13.208Z,4.22
2018-05-19T14:04:40.938Z,4.28
2018-05-19T14:07:11.004Z,2.70
2018-05-19T14:09:39.984Z,4.30
2018-05-19T14:12:07.462Z,3.92
2018-05-19T14:14:35.927Z,2.20
2018-05-19T14:17:03.478Z,3.12
2018-05-19T14:19:31.019Z,5.45
2018-05-19T14:21:58.394Z,5.68
2018-05-19T14:24:25.697Z,3.33
2018-05-19T14:26:52.998Z,5.95
2018-05-19T14:29:20.590Z,3.58
2018-05-19T14:31:47.894Z,3.70
2018-05-19T14:34:15.209Z,2.73
2018-05-19T14:36:42.503Z,3.33
2018-05-19T14:39:09.815Z,1.58
2018-05-19T14:41:37.361Z,5.35
2018-05-19T14:44:04.649Z,3.87
2018-05-19T14:46:32.152Z,4.62
2018-05-19T14:48:59.737Z,3.50
2018-05-19T14:51:27.298Z,3.67
2018-05-19T14:53:54.581Z,2.85
2018-05-19T14:56:22.105Z,5.07
2018-05-19T14:58:49.388Z,2.30
2018-05-19T15:01:16.697Z,2.47
2018-05-19T15:03:43.980Z,2.65
2018-05-19T15:06:11.254Z,4.50
2018-05-19T15:08:38.786Z,4.70
2018-05-19T15:11:06.086Z,2.03
2018-05-19T15:13:33.588Z,3.78
2018-05-19T15:16:00.898Z,5.57
2018-05-19T15:18:28.409Z,6.25
2018-05-19T15:20:55.676Z,2.97
2018-05-19T15:23:23.329Z,3.30
2018-05-19T15:25:50.882Z,6.15
2018-05-19T15:28:18.164Z,4.93
2018-05-19T15:30:45.693Z,6.20
2018-05-19T15:33:13.006Z,3.40
2018-05-19T15:35:40.293Z,5.70
2018-05-19T15:38:07.867Z,2.57
2018-05-19T15:40:35.156Z,2.47
2018-05-19T15:43:02.478Z,2.45
2018-05-19T15:45:30.029Z,3.47
2018-05-19T15:47:57.345Z,2.92
2018-05-19T15:50:24.625Z,4.53
2018-05-19T15:52:52.196Z,2.40
2018-05-19T15:55:19.487Z,4.10
2018-05-19T15:57:46.782Z,5.10
2018-05-19T16:00:14.066Z,4.78
2018-05-19T16:02:41.630Z,3.60
2018-05-19T16:05:08.953Z,4.30
2018-05-19T16:07:36.224Z,5.00
2018-05-19T16:10:03.513Z,5.93
2018-05-19T16:12:30.838Z,4.60
2018-05-19T16:14:58.117Z,5.30
2018-05-19T16:17:25.424Z,2.00
2018-05-19T16:19:52.981Z,5.07
2018-05-19T16:22:20.570Z,2.60
2018-05-19T16:24:47.852Z,3.70
2018-05-19T16:27:15.160Z,2.70
2018-05-19T16:29:42.435Z,2.10
2018-05-19T16:32:09.737Z,3.90
2018-05-19T16:34:37.046Z,3.37
2018-05-19T16:37:04.603Z,2.47
2018-05-19T16:39:31.915Z,3.20
2018-05-19T16:41:59.408Z,5.57
2018-05-19T16:44:26.716Z,5.13
2018-05-19T16:46:53.997Z,4.33
2018-05-19T16:49:21.277Z,5.40
2018-05-19T16:51:48.814Z,3.47
2018-05-19T16:54:16.350Z,3.77
2018-05-19T16:56:43.669Z,5.22
2018-05-19T16:59:10.960Z,3.72
2018-05-19T17:01:38.468Z,5.20
2018-05-19T17:04:05.956Z,4.12
2018-05-19T17:06:33.240Z,4.28
2018-05-19T17:09:00.516Z,4.70
2018-05-19T17:11:28.079Z,5.40
2018-05-19T17:13:55.377Z,4.12
2018-05-19T17:16:22.877Z,2.90
2018-05-19T17:18:50.368Z,6.32
2018-05-19T17:21:17.654Z,5.18
2018-05-19T17:23:45.140Z,3.80
2018-05-19T17:26:12.461Z,5.15
2018-05-19T17:28:39.771Z,6.63
2018-05-19T17:31:07.057Z,6.80
2018-05-19T17:33:34.582Z,8.90
2018-05-19T17:36:01.899Z,5.80
2018-05-19T17:38:29.200Z,4.80
2018-05-19T17:40:56.752Z,3.70
2018-05-19T17:43:24.054Z,4.18
2018-05-19T17:45:51.354Z,6.18
2018-05-19T17:48:18.922Z,3.20
2018-05-19T17:50:46.480Z,10.30
2018-05-19T17:53:13.752Z,6.18
2018-05-19T17:55:41.270Z,6.50
2018-05-19T17:58:08.852Z,4.50
2018-05-19T18:00:36.144Z,5.97
2018-05-19T18:03:03.773Z,4.10
2018-05-19T18:05:31.086Z,6.00
2018-05-19T18:07:58.685Z,3.67
2018-05-19T18:10:26.350Z,7.10
2018-05-19T18:12:53.645Z,6.50
2018-05-19T18:15:20.965Z,6.05
2018-05-19T18:17:48.252Z,4.15
2018-05-19T18:20:15.532Z,5.60
2018-05-19T18:22:42.814Z,5.40
2018-05-19T18:25:10.314Z,6.90
2018-05-19T18:27:37.942Z,10.30
2018-05-19T18:30:05.257Z,3.65
2018-05-19T18:32:32.858Z,4.70
2018-05-19T18:35:00.148Z,4.68
2018-05-19T18:37:27.426Z,4.77
2018-05-19T18:39:54.715Z,4.70
2018-05-19T18:42:22.038Z,4.20
2018-05-19T18:44:49.319Z,4.57
2018-05-19T18:47:16.601Z,10.48
2018-05-19T18:49:44.240Z,5.30
2018-05-19T18:52:11.793Z,2.45
2018-05-19T18:54:39.068Z,4.75
2018-05-19T18:57:06.354Z,6.10
2018-05-19T18:59:33.849Z,3.78
2018-05-19T19:02:01.141Z,5.22
2018-05-19T19:04:28.421Z,5.60
2018-05-19T19:06:55.937Z,5.47
2018-05-19T19:09:23.238Z,6.20
2018-05-19T19:11:50.850Z,4.40
2018-05-19T19:14:18.386Z,4.87
2018-05-19T19:16:45.967Z,4.57
2018-05-19T19:19:13.268Z,5.87
2018-05-19T19:21:40.590Z,4.23
2018-05-19T19:24:07.848Z,5.93
2018-05-19T19:26:35.132Z,7.18
2018-05-19T19:29:02.446Z,7.95
2018-05-19T19:31:29.717Z,4.00
2018-05-19T19:33:57.017Z,8.02
2018-05-19T19:36:24.597Z,4.20
2018-05-19T19:38:51.873Z,6.18
2018-05-19T19:41:19.202Z,4.90
2018-05-19T19:43:46.461Z,9.88
2018-05-19T19:46:14.025Z,14.45
2018-05-19T19:48:41.341Z,80.00
2018-05-19T19:51:08.630Z,15.23
2018-05-19T19:53:35.912Z,23.12
2018-05-19T19:56:03.234Z,8.40
2018-05-19T19:58:30.520Z,12.67
2018-05-19T20:00:57.804Z,7.43
2018-05-19T20:03:25.080Z,7.03
2018-05-19T20:05:52.660Z,9.32
2018-05-19T20:08:20.176Z,9.03
2018-05-19T20:10:47.713Z,6.35
2018-05-19T20:13:15.092Z,4.47
2018-05-19T20:15:42.376Z,97.87
2018-05-19T20:18:09.672Z,21.35
2018-05-19T20:20:37.165Z,16.05
2018-05-19T20:23:04.491Z,11.00
2018-05-19T20:25:31.785Z,12.97
2018-05-19T20:27:59.288Z,7.30
2018-05-19T20:30:26.599Z,10.80
2018-05-19T20:32:54.139Z,6.55
2018-05-19T20:35:21.665Z,6.15
2018-05-19T20:37:48.966Z,7.62
2018-05-19T20:40:16.272Z,5.40
2018-05-19T20:42:43.556Z,5.68
2018-05-19T20:45:11.048Z,5.82
2018-05-19T20:47:38.591Z,3.65
2018-05-19T20:50:05.887Z,6.85
2018-05-19T20:52:33.169Z,3.85
2018-05-19T20:55:00.437Z,8.45
2018-05-19T20:57:27.724Z,4.50
2018-05-19T20:59:55.042Z,3.97
2018-05-19T21:02:22.586Z,4.00
2018-05-19T21:04:49.849Z,4.10
2018-05-19T21:07:17.170Z,3.97
2018-05-19T21:09:44.436Z,3.50
2018-05-19T21:12:11.754Z,4.78
2018-05-19T21:14:39.038Z,3.60
2018-05-19T21:17:06.309Z,3.40
2018-05-19T21:19:33.805Z,4.97
2018-05-19T21:22:01.089Z,6.68
2018-05-19T21:24:28.367Z,4.43
2018-05-19T21:26:55.888Z,4.80
2018-05-19T21:29:23.456Z,6.55
2018-05-19T21:31:50.990Z,3.55
2018-05-19T21:34:18.573Z,2.83
2018-05-19T21:36:46.132Z,3.30
2018-05-19T21:39:13.405Z,2.87
2018-05-19T21:41:40.946Z,3.58
2018-05-19T21:44:08.522Z,5.12
2018-05-19T21:46:35.814Z,3.92
2018-05-19T21:49:03.095Z,6.53
2018-05-19T21:51:30.393Z,2.50
2018-05-19T21:53:57.680Z,4.33
2018-05-19T21:56:25.286Z,3.67
2018-05-19T21:58:52.594Z,4.45
2018-05-19T22:01:20.138Z,4.50
2018-05-19T22:03:47.698Z,4.03
2018-05-19T22:06:15.006Z,3.80
2018-05-19T22:08:42.276Z,4.05
2018-05-19T22:11:09.550Z,4.15
2018-05-19T22:13:36.862Z,4.60
2018-05-19T22:16:04.137Z,3.58
2018-05-19T22:18:31.440Z,4.18
2018-05-19T22:20:58.750Z,3.65
2018-05-19T22:23:26.029Z,3.37
2018-05-19T22:25:53.335Z,4.68
2018-05-19T22:28:20.658Z,2.40
2018-05-19T22:30:47.950Z,2.75
2018-05-19T22:33:15.237Z,3.60
2018-05-19T22:35:42.521Z,2.70
2018-05-19T22:38:09.858Z,3.37
2018-05-19T22:40:37.161Z,3.10
2018-05-19T22:43:04.445Z,5.68
2018-05-19T22:45:31.761Z,5.22
2018-05-19T22:47:59.057Z,4.33
2018-05-19T22:50:26.430Z,2.20
2018-05-19T22:52:53.738Z,3.30
2018-05-19T22:55:21.037Z,2.15
2018-05-19T22:57:48.358Z,3.40
2018-05-19T23:00:25.691Z,3.87
2018-05-19T23:02:53.010Z,2.50
2018-05-19T23:05:20.323Z,2.60
2018-05-19T23:07:47.608Z,3.92
2018-05-19T23:10:15.156Z,2.83
2018-05-19T23:12:42.477Z,1.57
2018-05-19T23:15:09.744Z,5.10
2018-05-19T23:17:37.977Z,4.32
2018-05-19T23:20:05.493Z,5.22
2018-05-19T23:22:39.098Z,6.45
2018-05-19T23:25:06.429Z,2.20
2018-05-19T23:27:33.961Z,3.30
2018-05-19T23:30:01.250Z,1.50
2018-05-19T23:32:28.512Z,3.67
2018-05-19T23:34:55.804Z,2.60
2018-05-19T23:37:23.076Z,1.90
2018-05-19T23:39:50.364Z,3.45
2018-05-19T23:42:17.940Z,6.78
2018-05-19T23:44:45.257Z,3.95
2018-05-19T23:47:12.558Z,4.47
2018-05-19T23:49:40.109Z,4.68
2018-05-19T23:52:07.674Z,6.50
2018-05-19T23:54:35.225Z,5.40
2018-05-19T23:57:02.501Z,4.00
2018-05-19T23:59:29.785Z,2.30
